LiveATC.Net - Listen to live air traffic control over the Internet!

Find LiveATC Audio Streams


Airport/ARTCC Code

Frequency Search
(e.g., 124.400, 128.75)
Site-wide search
 


Browse LiveATC Feeds
LiveATC Coverage Map
Top 50 LiveATC Feeds
Bad Weather Areas

LiveATC FAQ
Offer a LiveATC Feed
Contact LiveATC.net
Press Inquiries

LiveATC on iPhone
LiveATC on Android

Windows Phone
Windows 8/10

LiveATC Mobile
(Mobile browser)

ATC Audio Archives
Interesting Recordings

LiveATC Forums

Home Page
About LiveATC.net
Make a Donation
Terms of Use
Privacy Policy

Canadian Air Freqs

AIRMETs/SIGMETs

FAA Airport Status
Nat'l Airspace Status
Arrival Demand Charts


Server Software By:
Icecast.org
Liquidsoap


Current Potentially Bad Weather Airports
(updated every 30 minutes - sorted alphabetically by ICAO code)



This page lists LiveATC.net airport areas that may be interesting to listen to because of challenging flying (weather) conditions. Challenging weather conditions include low ceilings, limited visibility, high or gusty winds, or thunderstorms.

Updated: Wed Apr 25 06:40:01 UTC 2018
Click on airport name to go to that airport area's feeds.

CYKZ Ground/Tower Buttonville Municipal Airport (Buttonville, CA-ON)
cykzNearest METAR:
CYKZ 250600Z 11007KT 1 3/4SM -RA BR BKN001 OVC005 09/09 A3000 RMK SF5SC3 SLP163
CYQG Gnd/Twr/App/Misc Windsor Airport (Windsor, CA-ON)
cyqgNearest METAR:
CYQG 250616Z 01004KT 1 3/4SM BR OVC001 09/09 A2992 RMK DZ1ST7 INTMT -DZ SLP135
CYTS CTAF/Misc Timmins Airport (Timmins, CA-ON)
WX MAP UNAVAILABLENearest METAR:
CYTS 250600Z 35009KT 5SM -SN BKN005 BKN015 OVC040 00/M00 A3010 RMK SC5SC2SC1 SLP205
EFKU Tower/Approach Kuopio Airport (Siilinjarvi, Finland)
WX MAP UNAVAILABLENearest METAR:
EFKU 250620Z 15008KT 9999 OVC004 04/04 Q0995
EHGG Approach Groningen Airport Eelde (Groningen, Netherlands)
WX MAP UNAVAILABLENearest METAR:
EHGG 250625Z AUTO 28016KT 240V320 9999 SCT013 SCT016 10/07 Q1004 BECMG 30022G32KT TEMPO BKN012
KABE Gnd/Twr/App Lehigh Valley International Airport (Allentown, US-PA)
kabeNearest METAR:
KABE 250551Z 07009KT 5SM -RA BR OVC006 12/09 A3002 RMK AO2 SLP165 P0003 60013 T01170094 10156 20111 58035
KABQ Twr/App/ZAB Albuquerque International Sunport Airport (Albuquerque, US-NM)
kabqNearest METAR:
KABQ 250552Z 08029G37KT 10SM FEW250 12/03 A3015 RMK AO2 PK WND 08040/0459 SLP150 T01170028 10283 20117 53025
KACY App/Dep #2 Atlantic City International Airport (Atlantic City, US-NJ)
kacyNearest METAR:
KACY 250554Z 10011KT 1 1/2SM RA BR OVC004 13/13 A3000 RMK AO2 SLP157 P0014 60030 T01280128 10133 20122 58027
KADS Tower Addison Airport (Dallas, US-TX)
kadsNearest METAR:
KADS 250615Z AUTO 00000KT 10SM VCTS OVC085 22/06 A3012 RMK AO2 LTG DSNT W THRU NE T02210061
KAFW Tower/Heli/App Fort Worth Alliance Airport (Fort Worth, US-TX)
kafwNearest METAR:
KAFW 250609Z 33009KT 10SM TS OVC070CB 21/12 A3013 RMK AO2 LTG DSNT NW-E TSB08 FRQ LTGICCCCG N-NE TS N-NE MOV E T02060122
KAPA Gnd/Twr/Denver App Centennial Airport (Denver, US-CO)
kapaNearest METAR:
KAPA 250600Z 28004KT 10SM -SN OVC041 01/00 A3043 RMK AO2 SNB0556 P0000 T00110000 $
KARB Gnd/Twr Ann Arbor Municipal Airport (Ann Arbor, US-MI)
karbNearest METAR:
KARB 250553Z AUTO 36005KT 4SM -RA BR OVC004 11/10 A2994 RMK AO2 RAB38 SLP139 P0001 60001 T01060100 10111 20106 57005
KNEL/KWRI/ZNY Lakehurst Maxfield Field Joint Base McGuire (Lakehurst, US-NJ)
knelNearest METAR:
KNEL 250600Z AUTO 12011KT 4SM -RA BR OVC005 12/12 A3002 RMK AO2 SLP165 6//// T01220122 10128 20122 56020 PNO
KNEL/KWRI/ZNY Lakehurst Maxfield Field Joint Base McGuire (Lakehurst, US-NJ)
kwriNearest METAR:
KWRI 250606Z 09011KT 8SM OVC005 12/12 A2999 RMK AO2A TWR VIS 2 RAB0556E06 CIG 004 RWY18 SLP155
KBLM/N12/3N6/KMJX Old Bridge Airport (Old Bridge, US-NJ)
kmjxNearest METAR:
KMJX 250556Z AUTO 12007G17KT 5SM -RA BR OVC004 12/12 A3004 RMK AO2 SLP179 P0004 60010 T01220117 10128 20117 58023
KBOK CTAF Brookings Airport (Brookings, US-OR)
kbokNearest METAR:
KBOK 250556Z AUTO 15005KT 1/2SM -RA FG OVC002 10/10 A3005 RMK AO2 SLP191 P0000 60000 T01000100 10111 20100 51010
KBVI Ground/Tower Beaver County Airport (Beaver Falls, US-PA)
kbviNearest METAR:
KBVI 250047Z 11005KT 7SM RA OVC007 10/09 A3000 RMK LAST
KCFD CTAF/App Coulter Field Airport (Bryan, US-TX)
kcfdNearest METAR:
KCFD 250615Z AUTO 00000KT 10SM CLR 17/17 A3008 RMK AO2 LTG DSNT N T01740171
KCMA Gnd/Twr/App Camarillo Airport (Camarillo, US-CA)
kcmaNearest METAR:
KCMA 250555Z AUTO 21004KT 6SM HZ OVC006 13/10 A3003 RMK AO2 SLP178 T01330100 10183 20122 53014
KCMH Twr/App Port Columbus International Airport (Columbus, US-OH)
kcmhNearest METAR:
KCMH 250551Z 01003KT 10SM OVC009 12/11 A2988 RMK AO2 SLP117 60000 T01220106 10122 20122 57009
KCRQ Tower Mc Clellan-Palomar Airport (Carlsbad, US-CA)
kcrqNearest METAR:
KCRQ 250553Z AUTO 17003KT 8SM OVC006 13/12 A3003 RMK AO2 SLP167 T01280117 10161 20128 50007
KDAL ATIS Dallas Love Field Airport (Dallas, US-TX)
kdalNearest METAR:
KDAL 250617Z 21003KT 10SM TS OVC085CB 23/11 A3010 RMK AO2 TSB16 FRQ LTGICCG NW-NE TS NW-NE MOV SE T02280106
KDAY Del/Gnd/Twr/App James M Cox Dayton International Airport (Dayton, US-OH)
kdayNearest METAR:
KDAY 250556Z 32008KT 1/2SM R06L/P6000FT BR OVC002 11/11 A2991 RMK AO2 SFC VIS 3 RAE21B44E53 SLP128 P0001 60005 T01060106 10117 20106 56005
KDCA Tower/Approach Ronald Reagan Washington National Airport (Washington, US-DC)
kdcaNearest METAR:
KDCA 250552Z 03006KT 10SM -RA OVC007 13/12 A2989 RMK AO2 SLP120 P0010 60040 T01330117 10133 20128 58030
KDFW Reg App Feeder (East) Dallas/Fort Worth International Airport (Dallas, US-TX)
kdfwNearest METAR:
KDFW 250553Z 23008KT 10SM TS FEW035CB BKN080 OVC250 22/11 A3009 RMK AO2 LTG DSNT NW TSB53 SLP181 OCNL LTGIC W TS W MOV E T02170106 10267 20200 402890117 53017
KDOV Approach/Departure Dover Air Force Base (Dover, US-DE)
kdovNearest METAR:
KDOV 250456Z 09012G18KT 4SM -RA BR OVC004 13/12 A2996 RMK AO2A CIG 003V005 SLPNO P0005 T01250123 401510082 $
KDTO Gnd/Twr Denton Municipal Airport (Denton, US-TX)
kdtoNearest METAR:
KDTO 250626Z AUTO 16017KT 10SM VCTS -RA FEW055 BKN085 OVC110 18/13 A3004 RMK AO2 LTG DSNT E AND SE RAB0555 TSB05E20 PRESFR P0000 T01830133
KDTW Approach Detroit Metropolitan Wayne County Airport (Detroit, US-MI)
kdtwNearest METAR:
KDTW 250553Z 02005KT 1SM R03R/P6000FT -RA BR OVC002 11/09 A2994 RMK AO2 TWR VIS 1 1/4 SLP139 P0000 60002 T01060089 10111 20106 56013
KDYL CTAF #1 Doylestown Airport (Doylestown, US-PA)
kdylNearest METAR:
KDYL 250612Z AUTO 00000KT 5SM -RA BR OVC004 11/11 A3000 RMK AO2 P0002 T01110111
KEAR AWOS Kearney Regional Airport (Kearney, US-NE)
kearNearest METAR:
KEAR 250556Z AUTO 35015KT 6SM -RA BR OVC006 04/03 A3031 RMK AO2 RAB27 SLP274 P0000 60000 T00440033 10067 20044 401060044 58000
F44 CTAF Athens Municipal Airport (Athens, US-TX)
kf44Nearest METAR:
KF44 250615Z AUTO 00000KT 10SM CLR 14/12 A3007 RMK AO2 LTG DSNT NW
KFDK Del/Gnd/Twr/CTAF #2 Frederick Municipal Airport (Frederick, US-MD)
kfdkNearest METAR:
KFDK 250615Z AUTO 01008KT 3SM -DZ OVC004 11/11 A2994 RMK AO2 LTG DSNT SE
KFTW Clearance/Gnd/Twr Fort Worth Meacham International Airport (Fort Worth, US-TX)
kftwNearest METAR:
KFTW 250553Z 10004KT 10SM -RA BKN070 OVC100 22/14 A3010 RMK AO2 LTG DSNT N RAB22 SLP183 P0005 60005 T02170144 10283 20211 402940133 53018
KGYH Tower Donaldson Field Airport (Greenville, US-SC)
kgyhNearest METAR:
KGYH 250615Z AUTO 00000KT 1/4SM FG OVC001 14/13 A2979 RMK AO2
KHEF Del/Gnd/Twr Manassas Regional Airport/Harry P. Davis Field (Manassas, US-VA)
khefNearest METAR:
KHEF 250624Z AUTO 36007KT 8SM -RA OVC006 12/12 A2988 RMK AO2 CIG 004V009 PNO $
KJYO CTAF/Del/SFRA Leesburg Executive Airport (Leesburg, US-VA)
kjyoNearest METAR:
KJYO 250615Z AUTO 03005KT 5SM -RA OVC004 10/10 A2990 RMK AO2 P0002
KINT Ground/Tower Smith Reynolds Airport (Winston Salem, US-NC)
kintNearest METAR:
KINT 250554Z AUTO 03008KT 5SM -RA BR OVC004 13/13 A2977 RMK AO2 RAB45 SLP077 P0000 60023 T01330128 10156 20133 56013
KJNX CTAF Johnston Regional Airport (Smithfield, US-NC)
kjnxNearest METAR:
KJNX 250625Z AUTO 00000KT 7SM OVC011 16/16 A2976 RMK AO2 LTG DSNT E
KJXN Del/Gnd/Twr/App Jackson County Airport-Reynolds Field (Jackson, US-MI)
kjxnNearest METAR:
KJXN 250556Z AUTO 33003KT 2 1/2SM -RA BR BKN004 OVC016 11/11 A2994 RMK AO2 RAB06E30B52 SLP142 P0003 60003 T01110106 10111 20111 58009
KLAN Del/Gnd/Twr/App Capital Region International Airport (Lansing, US-MI)
klanNearest METAR:
KLAN 250553Z 35004KT 4SM BR OVC004 11/11 A2996 RMK AO2 RAE0457 SLP146 P0000 60007 T01060106 10122 20106 57009
KLFI Del/Gnd/Twr Langley Air Force Base (Hampton, US-VA)
klfiNearest METAR:
KLFI 250556Z AUTO 10007KT 4SM BR OVC006 15/15 A2983 RMK AO2 RAE0457 CIG 005 RWY08 SLP108 P0000 60001 T01480148 10163 20142 57026
KLNS ATIS Lancaster Airport (Lancaster, US-PA)
klnsNearest METAR:
KLNS 250614Z AUTO 08011KT 4SM RA BR OVC009 12/11 A2993 RMK AO2 CIG 005V011 P0007 T01170106
KLYH Ground/Tower Lynchburg Regional Airport/Preston Glenn Field (Lynchburg, US-VA)
klyhNearest METAR:
KLYH 250554Z AUTO 02012KT 5SM -RA BR OVC005 12/11 A2981 RMK AO2 SLP092 P0001 60073 T01170106 10128 20117 58021
KCXY Ground Capital City Airport (Harrisburg, US-PA)
kcxyNearest METAR:
KCXY 250608Z AUTO 08006KT 3SM -RA BR OVC006 12/12 A2995 RMK AO2 P0001 T01170117
KMMU ATIS Morristown Municipal Airport (Morristown, US-NJ)
kmmuNearest METAR:
KMMU 250615Z AUTO 04004KT 5SM RA OVC006 10/10 A3006 RMK AO2 P0001
KMQS/KPTW CTAF Chester County G O Carlson Airport (Coatesville, US-PA)
kmqsNearest METAR:
KMQS 250615Z AUTO 09012KT 2SM RA OVC002 12/11 A2996 RMK AO2
KMQS/KPTW CTAF Chester County G O Carlson Airport (Coatesville, US-PA)
kptwNearest METAR:
KPTW 250617Z AUTO VRB05KT 3SM -RA BR OVC006 11/11 A2999 RMK AO2 P0000 T01110111
KNGU Del/Gnd/Twr Norfolk Naval Station (Chambers Field) (Norfolk, US-VA)
knguNearest METAR:
KNGU 250559Z 12006KT 7SM OVC005 16/14 A2983 RMK AO2 SLP100 60001 T01560144 10167 20156 58027
KNTU Gnd/Twr/App/Radar Oceana Naval Air Station (Apollo Soucek Field) (Virginia Beach, US-VA)
kntuNearest METAR:
KNTU 250556Z 08004KT 1SM BR OVC003 13/13 A2981 RMK AO2 PRESFR SLP096 60005 T01330133 10150 20128 58032
KORF Gnd/Twr/App/Radar Norfolk International Airport (Norfolk, US-VA)
korfNearest METAR:
KORF 250551Z 10003KT 9SM OVC003 16/15 A2982 RMK AO2 SLP096 60002 T01560150 10167 20156 56017
KOSU Ground/Tower Ohio State University Airport (Columbus, US-OH)
kosuNearest METAR:
KOSU 250553Z AUTO 00000KT 4SM BR OVC008 12/11 A2988 RMK AO2 SLP118 60002 T01170111 10122 20117 57008
KPHF Ground/Tower Newport News/Williamsburg International Airport (Newport News, US-VA)
kphfNearest METAR:
KPHF 250554Z AUTO 08006KT 1 3/4SM BR OVC003 14/14 A2983 RMK AO2 SLP100 60003 T01440139 10167 20144 58026
KPNE Gnd/Twr/App Northeast Philadelphia Airport (Philadelphia, US-PA)
kpneNearest METAR:
KPNE 250554Z AUTO 09010KT 5SM BR OVC005 13/12 A3003 RMK AO2 SLP167 P0001 60015 T01330117 10150 20133 58027
KPTK Tower Oakland County International Airport (Pontiac, US-MI)
kptkNearest METAR:
KPTK 250621Z AUTO 01003KT 2 1/2SM -RA BR OVC006 10/10 A2993 RMK AO2 P0001 T01000100
KRDG Gnd/Twr/App Reading Regional Airport/Carl A Spaatz Field (Reading, US-PA)
krdgNearest METAR:
KRDG 250613Z AUTO 05004KT 5SM -RA BR OVC009 11/11 A2996 RMK AO2 CIG 005V011 P0000 T01110111
KRIC Del/Gnd/Twr/App Richmond International Airport (Richmond, US-VA)
kricNearest METAR:
KRIC 250554Z 09007KT 6SM -DZ BR OVC004 15/15 A2982 RMK AO2 RAB00E53DZB53 SLP101 P0000 60046 T01500150 10150 20144 58026 $
KSBA Tower Santa Barbara Municipal Airport (Santa Barbara, US-CA)
ksbaNearest METAR:
KSBA 250553Z 10004KT 8SM OVC006 12/11 A3003 RMK AO2 SLP170 T01220106 10150 20117 53015 $
KRGA CTAF/AWOS Central Kentucky Regional Airport (Richmond, US-KY)
krgaNearest METAR:
KRGA 250615Z AUTO 31004KT 7SM OVC005 12/12 A2989 RMK AO2
KSDM Ground/Tower Brown Field Municipal Airport (San Diego, US-CA)
ksdmNearest METAR:
KSDM 250553Z AUTO 00000KT 5SM BR OVC006 13/12 A3004 RMK AO2 SLP170 T01330117 10189 20122 50011
KSLN Ground/Tower Salina Regional Airport (Salina, US-KS)
kslnNearest METAR:
KSLN 250553Z 32012KT 8SM -RA OVC009 09/08 A3023 RMK AO2 CIG 007V013 SLP233 P0004 60011 T00890083 10122 20089 402280050 58003
KTKI Gnd/Twr Collin County Regional Airport at Mc Kinney (Dallas, US-TX)
ktkiNearest METAR:
KTKI 250619Z AUTO 02003KT 8SM TSRA FEW055 BKN090 17/13 A3009 RMK AO2 LTG DSNT SW AND W RAB10 TSB13 P0002 T01670133
KTOL Del/Gnd/Twr/App Toledo Express Airport (Toledo, US-OH)
ktolNearest METAR:
KTOL 250552Z 01005KT 2 1/2SM BR OVC003 09/09 A2992 RMK AO2 SLP135 60002 T00940094 10100 20094 56009 $
KTRI Gnd/Twr/App Tri-Cities Regional Airport (Bristol/Johnson/Kingsport, US-TN)
ktriNearest METAR:
KTRI 250553Z 29004KT 8SM OVC006 13/13 A2984 RMK AO2 SLP090 60003 T01280128 10139 20128 58005
KTTA CTAF Raleigh Executive Jetport at Sanford-Lee County Airport (Sanford, US-NC)
kttaNearest METAR:
KTTA 250615Z AUTO 00000KT 1/2SM FG OVC002 15/15 A2974 RMK AO2 T01460146
KTTN Ground/Tower Trenton Mercer Airport (Trenton, US-NJ)
kttnNearest METAR:
KTTN 250612Z AUTO 10007KT 4SM -RA BR OVC004 12/12 A3001 RMK AO2 CIG 003V009 P0001 T01220117
KWVI CTAF/NORCAL App #2 Watsonville Municipal Airport (Watsonville, US-CA)
kwviNearest METAR:
KWVI 250610Z AUTO 28003KT 8SM OVC009 11/09 A3005 RMK AO2 T01110094
KYIP Gnd/Twr/App Willow Run Airport (Detroit, US-MI)
kyipNearest METAR:
KYIP 250553Z 36004KT 2SM BR OVC004 12/10 A2994 RMK AO2 SLP137 60001 T01170100 10122 20117 56006
LFBZ Tower Anglet Airport (Biarritz, France)
WX MAP UNAVAILABLENearest METAR:
LFBZ 250600Z AUTO 32003KT 4600 -DZ BR BKN009 OVC014 14/14 Q1021 TEMPO OVC003
LPCS Tower Cascais Municipal Aerodrome (Cascais, Portugal)
WX MAP UNAVAILABLENearest METAR:
LPCS 250600Z 01023G33KT 9999 FEW012 13/12 Q1016
MMMX Dep/Center Licenciado Benito Juarez International Airport (Mexico City, Mexico)
WX MAP UNAVAILABLENearest METAR:
MMMX 250547Z 26004KT 7SM SCT020 BKN080 BKN200 15/11 A3042 TEMPO 5SM TSRA RMK SLP108 52007 904 60075 8/463 HZY -RAE38
USCC Twr/App/Control Chelyabinsk Airport (Chelyabinsk, Russia)
WX MAP UNAVAILABLENearest METAR:
USCC 250600Z 27008MPS 2500 -SHSN BKN010CB 02/M01 Q1008 R27/290050 TEMPO 1100 SHSN VV005 RMK QFE736
USTR Gnd/Twr/App Roshchino International Airport (Tyumen, Russia)
WX MAP UNAVAILABLENearest METAR:
USTR 250600Z 31005MPS 280V340 5000 -SHSNRA BKN009 OVC018CB 01/M01 Q1005 R21/290060 TEMPO 1200 SHSNRA VV003 RMK QFE744/0992